Time;durP1;ratioP1;P1;durP2;ratioP2;P2;SDS_P1;SDS_P2;PMS_P1;PMS_P2;Temp;Humidity;BMP_temperature;BMP_pressure;BME280_temperature;BME280_humidity;BME280_pressure;Samples;Min_cycle;Max_cycle;Signal;HPM_P1;HPM_P2
2023/01/31 00:01:12;;;;;;;;;;;;;;;3.06;54.79;99180.00;5092754;28;19920;-41
2023/01/31 00:03:38;;;;;;;;;;;;;;;3.10;53.94;99173.41;5092508;28;19922;-41
2023/01/31 00:06:13;;;;;;;;;;;;;;;3.01;54.13;99182.31;5092660;28;19912;-42
2023/01/31 00:08:39;;;;;;;;;;;;;;;3.19;53.18;99179.50;5092268;28;20291;-42
2023/01/31 00:11:04;;;;;;;;;;;;;;;3.05;53.14;99181.81;5092432;28;19998;-42
2023/01/31 00:13:30;;;;;;;;;;;;;;;3.13;52.81;99181.78;5092498;28;19916;-42
2023/01/31 00:15:55;;;;;;;;;;;;;;;3.39;52.10;99182.53;5092304;28;20360;-43
2023/01/31 00:18:21;;;;;;;;;;;;;;;3.15;53.28;99172.94;5092211;28;19912;-42
2023/01/31 00:20:46;;;;;;;;;;;;;;;3.35;52.62;99182.06;5092049;28;19924;-41
2023/01/31 00:23:11;;;;;;;;;;;;;;;3.20;53.30;99176.69;5092359;28;20360;-43
2023/01/31 00:25:37;;;;;;;;;;;;;;;3.43;52.38;99182.03;5092222;28;19912;-41
2023/01/31 00:28:02;;;;;;;;;;;;;;;3.53;52.39;99182.63;5090727;28;20364;-41
2023/01/31 00:30:27;;;;;;;;;;;;;;;3.30;52.92;99177.31;5092128;28;19919;-42
2023/01/31 00:32:52;;;;;;;;;;;;;;;3.09;53.41;99177.88;5092128;28;20016;-43
2023/01/31 00:35:18;;;;;;;;;;;;;;;3.13;53.51;99178.34;5092094;28;20434;-42
2023/01/31 00:37:43;;;;;;;;;;;;;;;3.16;53.53;99177.19;5091126;28;19923;-43
2023/01/31 00:40:09;;;;;;;;;;;;;;;3.52;52.09;99178.38;5092002;28;19916;-42
2023/01/31 00:42:34;;;;;;;;;;;;;;;3.28;53.07;99162.69;5091764;28;19927;-42
2023/01/31 00:44:59;;;;;;;;;;;;;;;2.88;53.40;99135.56;5091556;28;20311;-42
2023/01/31 00:47:24;;;;;;;;;;;;;;;3.04;53.25;99159.16;5091784;28;19999;-41
2023/01/31 00:49:50;;;;;;;;;;;;;;;3.62;52.29;99164.19;5091669;28;19912;-42
2023/01/31 00:52:15;;;;;;;;;;;;;;;3.32;52.75;99158.72;5091759;28;19955;-42
2023/01/31 00:54:41;;;;;;;;;;;;;;;3.34;52.71;99164.63;5091810;28;20042;-42
2023/01/31 00:57:07;;;;;;;;;;;;;;;3.33;52.92;99161.19;5091886;28;19912;-42
2023/01/31 00:59:32;;;;;;;;;;;;;;;3.35;53.40;99165.44;5091742;28;20000;-43
2023/01/31 01:01:57;;;;;;;;;;;;;;;3.41;53.43;99170.03;5091559;28;20269;-41
2023/01/31 01:04:22;;;;;;;;;;;;;;;3.47;53.50;99180.69;5091502;28;19944;-42
2023/01/31 01:06:49;;;;;;;;;;;;;;;3.43;53.88;99176.78;5091574;28;19935;-41
2023/01/31 01:09:14;;;;;;;;;;;;;;;3.78;52.99;99185.16;5091682;28;19918;-42
2023/01/31 01:11:39;;;;;;;;;;;;;;;3.83;52.70;99179.38;5091751;28;19916;-41
2023/01/31 01:14:05;;;;;;;;;;;;;;;3.74;52.92;99183.84;5091341;28;19912;-42
2023/01/31 01:16:32;;;;;;;;;;;;;;;3.83;53.12;99182.81;5091513;28;19924;-43
2023/01/31 01:18:59;;;;;;;;;;;;;;;3.84;53.07;99184.44;5090858;28;19920;-42
2023/01/31 01:21:26;;;;;;;;;;;;;;;3.69;53.24;99173.00;5091568;28;19994;-42
2023/01/31 01:23:54;;;;;;;;;;;;;;;3.62;53.55;99166.81;5091221;28;19912;-40
2023/01/31 01:26:21;;;;;;;;;;;;;;;3.89;53.28;99174.22;5091243;28;19969;-42
2023/01/31 01:28:47;;;;;;;;;;;;;;;3.83;53.95;99177.56;5091160;28;19912;-42
2023/01/31 01:31:14;;;;;;;;;;;;;;;4.01;53.48;99176.47;5091363;28;19912;-41
2023/01/31 01:33:40;;;;;;;;;;;;;;;4.03;53.63;99187.63;5089834;28;19916;-42
2023/01/31 01:36:06;;;;;;;;;;;;;;;3.99;54.37;99181.06;5090937;28;19912;-42
2023/01/31 01:38:35;;;;;;;;;;;;;;;3.89;54.49;99184.75;5090925;28;20327;-40
2023/01/31 01:41:01;;;;;;;;;;;;;;;3.76;55.27;99175.78;5090847;28;19916;-40
2023/01/31 01:43:38;;;;;;;;;;;;;;;4.10;55.06;99180.69;5090787;28;19912;-41
2023/01/31 01:46:04;;;;;;;;;;;;;;;4.39;54.47;99173.88;5091047;28;20011;-41
2023/01/31 01:48:29;;;;;;;;;;;;;;;3.60;56.13;99159.09;5091526;28;19959;-41
2023/01/31 01:50:54;;;;;;;;;;;;;;;4.06;56.08;99153.06;5094945;28;19916;-40
2023/01/31 01:53:21;;;;;;;;;;;;;;;4.05;55.83;99170.66;5095047;28;19946;-41
2023/01/31 01:56:00;;;;;;;;;;;;;;;4.11;55.80;99177.03;5095076;28;19942;-41
2023/01/31 01:58:29;;;;;;;;;;;;;;;4.17;56.22;99163.19;5082303;28;19966;-41
2023/01/31 02:00:55;;;;;;;;;;;;;;;4.17;55.64;99142.13;5074720;28;19994;-40
2023/01/31 02:03:21;;;;;;;;;;;;;;;3.88;56.45;99162.06;5084420;28;19912;-41
2023/01/31 02:05:46;;;;;;;;;;;;;;;3.95;56.57;99154.28;5094576;28;20003;-41
2023/01/31 02:08:14;;;;;;;;;;;;;;;4.10;56.02;99154.34;5094796;28;20010;-41
2023/01/31 02:10:39;;;;;;;;;;;;;;;4.10;56.26;99143.81;5094600;28;19913;-42
2023/01/31 02:13:05;;;;;;;;;;;;;;;4.36;55.30;99137.34;5094731;28;19916;-42
2023/01/31 02:15:31;;;;;;;;;;;;;;;4.27;55.57;99132.16;5094689;28;20371;-42
2023/01/31 02:17:56;;;;;;;;;;;;;;;4.64;54.70;99113.84;5094689;28;19923;-42
2023/01/31 02:20:25;;;;;;;;;;;;;;;4.52;54.77;99120.56;5094253;28;19920;-42
2023/01/31 02:23:02;;;;;;;;;;;;;;;4.22;55.67;99125.78;5094503;28;19959;-42
2023/01/31 02:25:46;;;;;;;;;;;;;;;4.38;55.02;99124.78;5086510;28;19916;-42
2023/01/31 02:28:34;;;;;;;;;;;;;;;4.02;55.61;99126.25;5074156;28;19916;-41
2023/01/31 02:31:12;;;;;;;;;;;;;;;4.18;55.17;99129.75;5068097;28;19934;-41
2023/01/31 02:33:40;;;;;;;;;;;;;;;4.22;55.12;99126.59;5074320;28;19913;-40
2023/01/31 02:36:08;;;;;;;;;;;;;;;4.39;54.56;99131.72;5074371;28;20384;-41
2023/01/31 02:38:52;;;;;;;;;;;;;;;4.41;54.55;99124.47;5074111;28;20396;-42
2023/01/31 02:41:17;;;;;;;;;;;;;;;4.76;53.61;99124.75;5074275;28;20309;-39
2023/01/31 02:46:39;;;;;;;;;;;;;;;4.93;52.15;99117.50;5088385;28;19922;-41
2023/01/31 02:49:04;;;;;;;;;;;;;;;5.07;51.79;99119.34;5094705;28;20014;-41
2023/01/31 02:51:33;;;;;;;;;;;;;;;4.93;52.00;99120.97;5090523;28;19913;-40
2023/01/31 02:54:01;;;;;;;;;;;;;;;5.15;51.02;99113.13;5078608;28;19963;-41
2023/01/31 02:56:29;;;;;;;;;;;;;;;4.82;50.98;99116.16;5077234;28;19916;-41
2023/01/31 02:58:55;;;;;;;;;;;;;;;4.57;51.72;99118.19;5074583;28;19924;-40
2023/01/31 03:01:23;;;;;;;;;;;;;;;5.00;50.57;99119.22;5074323;28;19913;-41
2023/01/31 03:03:49;;;;;;;;;;;;;;;4.86;50.12;99114.78;5094807;28;19916;-40
2023/01/31 03:06:21;;;;;;;;;;;;;;;5.04;50.09;99124.97;5094350;28;19912;-40
2023/01/31 03:08:49;;;;;;;;;;;;;;;5.15;49.52;99113.13;5093699;28;19919;-41
2023/01/31 03:11:15;;;;;;;;;;;;;;;5.31;48.87;99104.19;5094250;28;19973;-41
2023/01/31 03:13:40;;;;;;;;;;;;;;;5.08;49.62;99103.31;5093949;28;19966;-41
2023/01/31 03:19:01;;;;;;;;;;;;;;;4.99;50.64;99106.22;5094106;28;20148;-40
2023/01/31 03:21:30;;;;;;;;;;;;;;;4.89;50.61;99112.59;5093968;28;20319;-40
2023/01/31 03:23:56;;;;;;;;;;;;;;;4.87;50.08;99116.41;5093958;28;20427;-40
2023/01/31 03:26:22;;;;;;;;;;;;;;;4.82;50.17;99122.25;5094468;28;19924;-41
2023/01/31 03:28:53;;;;;;;;;;;;;;;4.90;49.29;99110.78;5094380;28;19935;-41
2023/01/31 03:31:24;;;;;;;;;;;;;;;5.17;49.23;99111.13;5094120;28;19919;-41
2023/01/31 03:33:51;;;;;;;;;;;;;;;4.62;49.82;99115.84;5093673;28;19912;-41
2023/01/31 03:36:23;;;;;;;;;;;;;;;4.49;49.84;99124.38;5093861;28;19950;-41
2023/01/31 03:39:07;;;;;;;;;;;;;;;4.47;49.99;99123.72;5094089;28;19919;-41
2023/01/31 03:41:46;;;;;;;;;;;;;;;4.64;49.68;99119.94;5093692;28;20260;-41
2023/01/31 03:44:31;;;;;;;;;;;;;;;4.73;49.30;99127.78;5093838;28;19912;-41
2023/01/31 03:47:05;;;;;;;;;;;;;;;4.42;50.08;99144.56;5093297;28;19912;-40
2023/01/31 03:49:32;;;;;;;;;;;;;;;4.60;49.46;99133.66;5093892;28;19916;-41
2023/01/31 03:52:05;;;;;;;;;;;;;;;4.65;48.89;99132.13;5093313;28;19981;-40
2023/01/31 03:54:33;;;;;;;;;;;;;;;4.48;49.20;99136.72;5093705;28;19918;-41
2023/01/31 03:57:02;;;;;;;;;;;;;;;4.35;49.59;99135.72;5093689;28;19916;-41
2023/01/31 03:59:31;;;;;;;;;;;;;;;4.23;49.20;99128.22;5093814;28;20301;-42
2023/01/31 04:01:58;;;;;;;;;;;;;;;4.47;48.40;99131.63;5087407;28;19920;-41
2023/01/31 04:04:27;;;;;;;;;;;;;;;4.28;47.80;99144.34;5073121;28;19918;-40
2023/01/31 04:06:53;;;;;;;;;;;;;;;4.09;47.25;99155.31;5073151;28;20339;-41
2023/01/31 04:09:18;;;;;;;;;;;;;;;4.09;47.53;99143.00;5072920;28;20426;-40
2023/01/31 04:11:46;;;;;;;;;;;;;;;4.09;47.10;99145.63;5072842;28;19913;-41
2023/01/31 04:14:12;;;;;;;;;;;;;;;4.04;47.30;99142.69;5072694;28;20384;-40
2023/01/31 04:16:37;;;;;;;;;;;;;;;4.27;47.38;99150.59;5072823;28;19919;-40
2023/01/31 04:19:02;;;;;;;;;;;;;;;4.05;47.40;99161.94;5072607;28;20387;-41
2023/01/31 04:21:27;;;;;;;;;;;;;;;4.06;47.76;99160.97;5072769;28;19927;-40
2023/01/31 04:23:53;;;;;;;;;;;;;;;3.84;48.18;99171.28;5072978;28;19913;-41
2023/01/31 04:26:18;;;;;;;;;;;;;;;4.00;48.48;99169.53;5072643;28;20348;-41
2023/01/31 04:28:43;;;;;;;;;;;;;;;4.08;48.27;99174.75;5072921;28;19912;-42
2023/01/31 04:31:09;;;;;;;;;;;;;;;4.07;47.99;99171.31;5072607;28;19918;-41
2023/01/31 04:33:34;;;;;;;;;;;;;;;3.86;48.83;99173.75;5072747;28;20286;-41
2023/01/31 04:35:59;;;;;;;;;;;;;;;4.07;48.44;99181.00;5072751;28;19913;-42
2023/01/31 04:38:25;;;;;;;;;;;;;;;4.02;48.75;99168.38;5072324;28;20377;-41
2023/01/31 04:40:50;;;;;;;;;;;;;;;3.79;49.70;99192.06;5072256;28;19952;-41
2023/01/31 04:43:15;;;;;;;;;;;;;;;3.96;49.57;99178.78;5072867;28;19913;-42
2023/01/31 04:45:41;;;;;;;;;;;;;;;3.69;50.49;99184.38;5072529;28;20376;-42
2023/01/31 04:48:06;;;;;;;;;;;;;;;3.67;50.59;99196.06;5072373;28;19912;-41
2023/01/31 04:50:31;;;;;;;;;;;;;;;3.53;51.82;99201.06;5072176;28;19966;-42
2023/01/31 04:52:57;;;;;;;;;;;;;;;3.76;51.15;99197.66;5072220;28;19912;-41
2023/01/31 04:55:22;;;;;;;;;;;;;;;3.59;51.53;99193.47;5072197;28;19947;-41
2023/01/31 04:57:47;;;;;;;;;;;;;;;3.56;51.88;99205.16;5072155;28;19966;-42
2023/01/31 05:00:13;;;;;;;;;;;;;;;3.61;51.54;99196.75;5072218;28;19913;-42
2023/01/31 05:02:38;;;;;;;;;;;;;;;3.47;52.33;99198.28;5072166;28;19923;-42
2023/01/31 05:05:05;;;;;;;;;;;;;;;3.56;51.85;99196.44;5072703;28;19912;-41
2023/01/31 05:07:30;;;;;;;;;;;;;;;3.45;52.42;99203.72;5072129;28;19973;-40
2023/01/31 05:09:55;;;;;;;;;;;;;;;3.50;52.24;99193.50;5072153;28;19916;-42
2023/01/31 05:12:20;;;;;;;;;;;;;;;3.37;52.20;99182.72;5071842;28;19919;-42
2023/01/31 05:14:46;;;;;;;;;;;;;;;3.65;51.77;99188.31;5072127;28;19919;-42
2023/01/31 05:17:11;;;;;;;;;;;;;;;3.53;52.41;99190.53;5072031;28;20360;-41
2023/01/31 05:19:36;;;;;;;;;;;;;;;3.42;52.87;99183.00;5072003;28;19935;-42
2023/01/31 05:22:02;;;;;;;;;;;;;;;3.22;53.25;99179.13;5071897;28;19996;-42
2023/01/31 05:24:31;;;;;;;;;;;;;;;3.15;53.68;99188.72;5070846;28;20295;-42
2023/01/31 05:26:57;;;;;;;;;;;;;;;3.19;53.16;99184.75;5071530;28;19948;-40
2023/01/31 05:29:30;;;;;;;;;;;;;;;3.10;53.47;99200.56;5071831;28;19927;-41
2023/01/31 05:31:56;;;;;;;;;;;;;;;3.25;53.46;99202.47;5087698;28;19923;-42
2023/01/31 05:34:24;;;;;;;;;;;;;;;3.33;53.04;99202.44;5092061;28;19912;-42
2023/01/31 05:36:49;;;;;;;;;;;;;;;3.40;52.57;99211.28;5075357;28;19962;-42
2023/01/31 05:39:14;;;;;;;;;;;;;;;3.18;53.76;99212.03;5076067;28;19919;-41
2023/01/31 05:41:40;;;;;;;;;;;;;;;3.09;53.32;99225.19;5087014;28;19963;-41
2023/01/31 05:44:05;;;;;;;;;;;;;;;3.33;52.99;99215.59;5086459;28;19920;-41
2023/01/31 05:46:30;;;;;;;;;;;;;;;3.15;53.21;99210.56;5086257;28;19923;-41
2023/01/31 05:48:56;;;;;;;;;;;;;;;3.06;54.15;99208.94;5090924;28;19951;-40
2023/01/31 05:51:21;;;;;;;;;;;;;;;3.13;53.78;99210.72;5090785;28;19977;-41
2023/01/31 05:53:47;;;;;;;;;;;;;;;3.40;53.46;99223.63;5091041;28;20371;-41
2023/01/31 05:56:13;;;;;;;;;;;;;;;3.23;53.93;99228.13;5091015;28;20375;-41
2023/01/31 05:58:38;;;;;;;;;;;;;;;3.50;53.63;99232.97;5090725;28;20011;-42
2023/01/31 06:01:03;;;;;;;;;;;;;;;3.12;54.46;99243.28;5093484;28;20294;-42
2023/01/31 06:03:28;;;;;;;;;;;;;;;3.04;54.55;99240.63;5094433;28;19960;-42
2023/01/31 06:05:54;;;;;;;;;;;;;;;3.12;54.80;99255.59;5105347;28;20421;-41
2023/01/31 06:08:19;;;;;;;;;;;;;;;3.45;54.36;99248.44;5089614;28;19916;-42
2023/01/31 06:10:44;;;;;;;;;;;;;;;3.82;53.49;99265.41;5090146;28;19912;-42
2023/01/31 06:13:10;;;;;;;;;;;;;;;3.56;53.85;99270.09;5090553;28;19943;-42
2023/01/31 06:15:36;;;;;;;;;;;;;;;3.30;54.80;99268.53;5093554;28;19919;-42
2023/01/31 06:18:02;;;;;;;;;;;;;;;3.32;55.28;99261.31;5085550;28;19995;-41
2023/01/31 06:20:28;;;;;;;;;;;;;;;3.79;56.50;99265.75;5089085;28;19921;-42
2023/01/31 06:22:53;;;;;;;;;;;;;;;4.19;59.06;99274.44;5080368;28;20011;-42
2023/01/31 06:25:18;;;;;;;;;;;;;;;4.21;53.82;99267.19;5087159;28;20281;-42
2023/01/31 06:27:43;;;;;;;;;;;;;;;5.32;54.12;99275.50;5081637;28;19916;-41
2023/01/31 06:30:09;;;;;;;;;;;;;;;6.33;55.19;99273.16;5093195;28;19991;-41
2023/01/31 06:32:35;;;;;;;;;;;;;;;4.98;50.66;99281.28;5089924;28;20015;-41
2023/01/31 06:35:00;;;;;;;;;;;;;;;4.52;51.32;99268.97;5097309;28;19912;-42
2023/01/31 06:37:25;;;;;;;;;;;;;;;4.35;52.55;99273.50;5087955;28;20122;-41
2023/01/31 06:39:50;;;;;;;;;;;;;;;4.85;51.29;99284.53;5091837;28;19916;-42
2023/01/31 06:42:16;;;;;;;;;;;;;;;4.49;51.77;99287.75;5093370;28;20019;-41
2023/01/31 06:44:41;;;;;;;;;;;;;;;4.34;52.40;99284.22;5092199;28;19923;-42
2023/01/31 06:47:06;;;;;;;;;;;;;;;4.25;52.69;99276.38;5091812;28;20393;-41
2023/01/31 06:49:32;;;;;;;;;;;;;;;4.68;51.75;99289.09;5093085;28;20332;-42
2023/01/31 06:51:57;;;;;;;;;;;;;;;4.67;51.44;99277.75;5093744;28;19912;-42
2023/01/31 06:54:22;;;;;;;;;;;;;;;4.51;52.43;99275.22;5093820;28;20292;-42
2023/01/31 06:56:47;;;;;;;;;;;;;;;4.60;52.27;99289.16;5093438;28;20306;-41
2023/01/31 06:59:13;;;;;;;;;;;;;;;4.66;51.95;99293.72;5093147;28;20385;-42
2023/01/31 07:01:38;;;;;;;;;;;;;;;4.72;52.14;99295.66;5092933;28;19912;-42
2023/01/31 07:04:03;;;;;;;;;;;;;;;4.70;51.85;99303.75;5091846;28;19916;-41
2023/01/31 07:06:29;;;;;;;;;;;;;;;4.53;52.88;99306.66;5091663;28;20351;-41
2023/01/31 07:08:54;;;;;;;;;;;;;;;4.37;53.28;99286.53;5091066;28;19962;-42
2023/01/31 07:11:19;;;;;;;;;;;;;;;4.48;53.66;99310.66;5091354;28;19912;-41
2023/01/31 07:13:46;;;;;;;;;;;;;;;5.05;52.07;99314.69;5091923;28;19945;-41
2023/01/31 07:16:12;;;;;;;;;;;;;;;4.79;52.53;99311.59;5091720;28;20405;-40
2023/01/31 07:18:37;;;;;;;;;;;;;;;4.87;52.55;99306.25;5092713;28;19991;-42
2023/01/31 07:21:02;;;;;;;;;;;;;;;4.81;53.29;99334.13;5092533;28;20390;-42
2023/01/31 07:23:28;;;;;;;;;;;;;;;4.75;53.24;99326.94;5092886;28;19919;-42
2023/01/31 07:25:53;;;;;;;;;;;;;;;5.04;52.63;99336.75;5092680;28;19912;-42
2023/01/31 07:28:18;;;;;;;;;;;;;;;5.07;52.17;99339.06;5092834;28;19912;-42
2023/01/31 07:30:45;;;;;;;;;;;;;;;4.82;53.23;99337.63;5092572;28;20019;-42
2023/01/31 07:33:10;;;;;;;;;;;;;;;4.96;52.99;99338.66;5092711;28;20375;-42
2023/01/31 07:35:36;;;;;;;;;;;;;;;5.41;51.54;99340.41;5092780;28;19969;-43
2023/01/31 07:38:01;;;;;;;;;;;;;;;5.18;51.89;99347.53;5092529;28;19912;-43
2023/01/31 07:40:26;;;;;;;;;;;;;;;5.06;52.44;99336.59;5092324;28;19912;-43
2023/01/31 07:42:56;;;;;;;;;;;;;;;5.19;51.91;99349.19;5092564;28;20034;-42
2023/01/31 07:45:21;;;;;;;;;;;;;;;5.07;52.47;99354.06;5092504;28;19912;-42
2023/01/31 07:47:47;;;;;;;;;;;;;;;5.22;52.06;99344.38;5091309;28;19919;-42
2023/01/31 07:50:12;;;;;;;;;;;;;;;5.14;52.24;99352.38;5091572;28;20414;-42
2023/01/31 07:52:37;;;;;;;;;;;;;;;5.14;52.24;99355.00;5091919;28;19924;-41
2023/01/31 07:55:03;;;;;;;;;;;;;;;5.07;52.38;99354.06;5092196;28;20400;-42
2023/01/31 07:57:29;;;;;;;;;;;;;;;5.40;51.33;99351.94;5092849;28;19912;-42
2023/01/31 07:59:55;;;;;;;;;;;;;;;5.46;50.63;99343.34;5092196;28;19912;-44
2023/01/31 08:05:04;;;;;;;;;;;;;;;5.55;50.00;99354.63;5091898;28;20345;-42
2023/01/31 08:07:29;;;;;;;;;;;;;;;5.35;49.82;99356.97;5091890;28;19920;-42
2023/01/31 08:09:55;;;;;;;;;;;;;;;5.73;49.41;99356.94;5091414;28;19946;-41
2023/01/31 08:12:20;;;;;;;;;;;;;;;5.72;49.41;99352.63;5091371;28;19916;-42
2023/01/31 08:14:46;;;;;;;;;;;;;;;5.86;49.03;99366.84;5091527;28;19916;-40
2023/01/31 08:17:11;;;;;;;;;;;;;;;5.56;49.27;99355.44;5091830;28;19998;-41
2023/01/31 08:19:37;;;;;;;;;;;;;;;5.29;50.62;99368.22;5091130;28;20319;-41
2023/01/31 08:22:03;;;;;;;;;;;;;;;6.11;48.90;99364.78;5091741;28;20284;-43
2023/01/31 08:24:29;;;;;;;;;;;;;;;6.19;48.59;99361.22;5091269;28;19970;-42
2023/01/31 08:26:54;;;;;;;;;;;;;;;5.88;49.24;99376.22;5091244;28;19956;-42
2023/01/31 08:29:20;;;;;;;;;;;;;;;6.37;48.39;99366.09;5091168;28;19913;-42
2023/01/31 08:31:46;;;;;;;;;;;;;;;6.07;48.33;99371.41;5090838;28;20439;-42
2023/01/31 08:34:11;;;;;;;;;;;;;;;6.23;47.82;99373.06;5091290;28;20007;-42
2023/01/31 08:36:36;;;;;;;;;;;;;;;6.43;48.11;99373.28;5091774;28;19934;-42
2023/01/31 08:39:02;;;;;;;;;;;;;;;6.53;47.54;99375.63;5091231;28;20332;-41
2023/01/31 08:41:28;;;;;;;;;;;;;;;6.34;48.19;99377.88;5091229;28;19923;-42
2023/01/31 08:43:55;;;;;;;;;;;;;;;6.19;48.63;99369.97;5090994;28;20328;-41
2023/01/31 08:46:21;;;;;;;;;;;;;;;6.52;47.59;99366.09;5090977;28;20443;-43
2023/01/31 08:48:46;;;;;;;;;;;;;;;6.78;46.90;99379.59;5091064;28;20019;-42
2023/01/31 08:51:12;;;;;;;;;;;;;;;6.54;47.44;99379.94;5090871;28;19948;-42
2023/01/31 08:53:38;;;;;;;;;;;;;;;6.39;47.93;99374.66;5090818;28;19919;-41
2023/01/31 08:56:05;;;;;;;;;;;;;;;6.73;47.51;99381.97;5091054;28;19912;-42
2023/01/31 08:58:30;;;;;;;;;;;;;;;6.37;48.38;99384.59;5089877;28;20430;-42
2023/01/31 09:01:02;;;;;;;;;;;;;;;7.27;47.38;99385.94;5090318;28;20011;-42
2023/01/31 09:03:28;;;;;;;;;;;;;;;7.35;46.48;99388.47;5090849;28;19970;-42
2023/01/31 09:05:53;;;;;;;;;;;;;;;7.14;47.18;99381.38;5090550;28;19948;-41
2023/01/31 09:08:18;;;;;;;;;;;;;;;7.15;47.21;99387.47;5090639;28;20397;-42
2023/01/31 09:10:49;;;;;;;;;;;;;;;6.73;47.74;99381.16;5090678;28;19919;-42
2023/01/31 09:13:15;;;;;;;;;;;;;;;7.30;46.83;99385.56;5090797;28;19912;-42
2023/01/31 09:15:40;;;;;;;;;;;;;;;7.57;46.24;99383.94;5090605;28;20071;-42
2023/01/31 09:18:05;;;;;;;;;;;;;;;8.09;45.92;99394.25;5090899;28;19916;-42
2023/01/31 09:20:30;;;;;;;;;;;;;;;8.29;44.98;99389.06;5090199;28;19920;-42
2023/01/31 09:22:56;;;;;;;;;;;;;;;8.23;45.17;99382.72;5090703;28;19931;-42
2023/01/31 09:25:21;;;;;;;;;;;;;;;8.65;44.30;99388.81;5091019;28;19999;-41
2023/01/31 09:27:46;;;;;;;;;;;;;;;8.69;44.17;99381.28;5090401;28;19966;-42
2023/01/31 09:30:12;;;;;;;;;;;;;;;8.54;43.96;99378.78;5090296;28;19912;-41
2023/01/31 09:32:37;;;;;;;;;;;;;;;8.41;43.66;99383.03;5090633;28;19912;-42
2023/01/31 09:35:03;;;;;;;;;;;;;;;8.29;43.86;99376.63;5090232;28;19912;-41
2023/01/31 09:37:29;;;;;;;;;;;;;;;8.72;42.91;99370.25;5090049;28;19946;-40
2023/01/31 09:39:55;;;;;;;;;;;;;;;8.12;43.81;99367.38;5090134;28;19916;-41
2023/01/31 09:42:22;;;;;;;;;;;;;;;7.90;44.24;99361.31;5090528;28;19923;-42
2023/01/31 09:44:58;;;;;;;;;;;;;;;8.12;44.15;99368.19;5090198;28;19916;-41
2023/01/31 09:47:27;;;;;;;;;;;;;;;8.75;43.39;99368.03;5090269;28;20496;-42
2023/01/31 09:50:16;;;;;;;;;;;;;;;8.52;43.29;99356.94;5089979;28;19916;-42
2023/01/31 09:52:41;;;;;;;;;;;;;;;8.44;44.01;99354.47;5086576;28;19918;-42
2023/01/31 09:55:13;;;;;;;;;;;;;;;8.90;43.69;99335.19;5090172;28;19999;-43
2023/01/31 09:57:48;;;;;;;;;;;;;;;8.81;43.54;99329.25;5090097;28;20322;-42
2023/01/31 10:00:30;;;;;;;;;;;;;;;9.03;42.44;99331.75;5089641;28;19912;-41
2023/01/31 10:02:58;;;;;;;;;;;;;;;9.03;41.89;99340.53;5099035;28;19993;-41
2023/01/31 10:05:30;;;;;;;;;;;;;;;8.63;42.11;99331.69;5085088;28;19918;-42
2023/01/31 10:07:55;;;;;;;;;;;;;;;8.34;42.32;99321.16;5091585;28;20480;-42
2023/01/31 10:10:20;;;;;;;;;;;;;;;8.46;42.19;99318.78;5108148;28;19955;-41
2023/01/31 10:12:49;;;;;;;;;;;;;;;8.48;41.93;99308.78;5090165;28;20330;-45
2023/01/31 10:15:23;;;;;;;;;;;;;;;8.80;42.14;99319.69;5082547;28;19947;-48
2023/01/31 10:17:51;;;;;;;;;;;;;;;8.94;41.94;99313.34;5074106;28;19978;-41
2023/01/31 10:20:20;;;;;;;;;;;;;;;9.09;41.35;99313.16;5073268;28;19924;-41
2023/01/31 10:22:51;;;;;;;;;;;;;;;9.51;41.12;99304.97;5073921;28;19928;-42
2023/01/31 10:25:16;;;;;;;;;;;;;;;8.90;41.10;99303.34;5074155;28;19916;-42
2023/01/31 10:27:54;;;;;;;;;;;;;;;8.89;42.09;99299.91;5073052;28;19919;-42
2023/01/31 10:30:22;;;;;;;;;;;;;;;9.17;41.07;99309.47;5078689;28;19967;-42
2023/01/31 10:32:56;;;;;;;;;;;;;;;9.76;39.25;99297.13;5084070;28;20051;-36
2023/01/31 10:35:29;;;;;;;;;;;;;;;9.47;39.92;99296.59;5085431;28;19912;-36
2023/01/31 10:38:04;;;;;;;;;;;;;;;9.75;40.92;99301.63;5081901;28;19916;-36
2023/01/31 10:40:33;;;;;;;;;;;;;;;9.95;40.09;99282.94;5083123;28;20031;-36
2023/01/31 10:43:08;;;;;;;;;;;;;;;10.28;39.89;99292.66;5081694;28;19931;-36
2023/01/31 10:45:33;;;;;;;;;;;;;;;10.53;38.71;99282.09;5081102;28;19970;-36
2023/01/31 10:48:05;;;;;;;;;;;;;;;10.36;39.55;99287.09;5082043;28;19912;-37
2023/01/31 10:50:30;;;;;;;;;;;;;;;10.42;37.99;99277.44;5084731;28;19927;-42
2023/01/31 10:53:17;;;;;;;;;;;;;;;10.41;38.93;99277.66;5084356;28;19920;-41
2023/01/31 10:55:58;;;;;;;;;;;;;;;10.31;38.59;99283.44;5083789;28;19924;-43
2023/01/31 10:58:24;;;;;;;;;;;;;;;9.68;38.78;99282.22;5086095;28;20447;-41
2023/01/31 11:00:50;;;;;;;;;;;;;;;9.44;40.27;99282.91;5092207;28;20012;-42
2023/01/31 11:03:15;;;;;;;;;;;;;;;9.64;40.62;99290.84;5091684;28;19973;-42
2023/01/31 11:05:46;;;;;;;;;;;;;;;10.09;39.11;99277.56;5088641;28;19935;-42
2023/01/31 11:08:28;;;;;;;;;;;;;;;9.94;39.73;99268.03;5093904;28;19920;-41
2023/01/31 11:10:54;;;;;;;;;;;;;;;10.20;39.02;99265.47;5092894;28;19995;-41
2023/01/31 11:13:21;;;;;;;;;;;;;;;10.92;38.18;99282.84;5092939;28;19912;-42
2023/01/31 11:15:47;;;;;;;;;;;;;;;10.44;39.19;99278.06;5092891;28;19916;-42
2023/01/31 11:18:27;;;;;;;;;;;;;;;10.44;39.13;99278.06;5093061;28;19912;-41
2023/01/31 11:20:53;;;;;;;;;;;;;;;10.29;39.08;99274.84;5092857;28;20007;-41
2023/01/31 11:23:23;;;;;;;;;;;;;;;10.59;39.12;99266.31;5091416;28;19920;-41
2023/01/31 11:25:49;;;;;;;;;;;;;;;10.51;38.98;99270.03;5092923;28;19916;-41
2023/01/31 11:28:35;;;;;;;;;;;;;;;11.25;37.90;99273.78;5092945;28;20338;-42
2023/01/31 11:31:01;;;;;;;;;;;;;;;11.00;37.43;99272.94;5092491;28;19912;-43
2023/01/31 11:33:44;;;;;;;;;;;;;;;10.76;37.82;99273.53;5092379;28;19918;-42
2023/01/31 11:36:11;;;;;;;;;;;;;;;11.41;36.71;99266.25;5092547;28;19969;-43
2023/01/31 11:38:36;;;;;;;;;;;;;;;11.28;36.91;99267.97;5092840;28;19951;-43
2023/01/31 11:41:21;;;;;;;;;;;;;;;10.61;38.99;99270.38;5092509;28;20058;-42
2023/01/31 11:43:47;;;;;;;;;;;;;;;10.67;38.28;99266.84;5092419;28;19956;-43
2023/01/31 11:46:12;;;;;;;;;;;;;;;10.13;39.57;99261.00;5092489;28;20393;-42
2023/01/31 11:48:41;;;;;;;;;;;;;;;9.57;40.00;99254.47;5092289;28;19918;-42
2023/01/31 11:51:08;;;;;;;;;;;;;;;9.27;41.02;99259.44;5092246;28;19920;-42
2023/01/31 11:53:42;;;;;;;;;;;;;;;9.13;41.70;99253.31;5092619;28;20236;-42
2023/01/31 11:56:33;;;;;;;;;;;;;;;8.27;43.44;99261.19;5091930;28;19912;-42
2023/01/31 11:59:06;;;;;;;;;;;;;;;7.81;44.90;99255.53;5090847;28;19974;-41
2023/01/31 12:01:33;;;;;;;;;;;;;;;8.10;44.57;99258.09;5091998;28;19955;-41
2023/01/31 12:04:00;;;;;;;;;;;;;;;8.11;44.86;99259.69;5092142;28;20011;-42
2023/01/31 12:06:28;;;;;;;;;;;;;;;8.17;44.75;99246.47;5092223;28;19920;-42
2023/01/31 12:08:54;;;;;;;;;;;;;;;8.65;43.67;99258.84;5091741;28;19919;-42
2023/01/31 12:11:20;;;;;;;;;;;;;;;8.02;44.52;99257.25;5092477;28;19919;-42
2023/01/31 12:13:49;;;;;;;;;;;;;;;7.99;44.41;99262.91;5092286;28;19912;-43
2023/01/31 12:16:17;;;;;;;;;;;;;;;8.30;43.83;99269.56;5091660;28;20315;-43
2023/01/31 12:18:43;;;;;;;;;;;;;;;8.00;44.47;99266.41;5091332;28;19937;-41
2023/01/31 12:21:14;;;;;;;;;;;;;;;8.27;43.78;99271.78;5091806;28;19916;-42
2023/01/31 12:23:42;;;;;;;;;;;;;;;8.41;43.62;99284.06;5091975;28;19912;-42
2023/01/31 12:26:28;;;;;;;;;;;;;;;8.06;44.14;99278.88;5091830;28;19912;-42
2023/01/31 12:29:02;;;;;;;;;;;;;;;7.89;45.03;99285.53;5089909;28;19919;-42
2023/01/31 12:31:35;;;;;;;;;;;;;;;7.78;45.47;99286.88;5082799;28;19916;-42
2023/01/31 12:34:19;;;;;;;;;;;;;;;8.06;45.50;99284.16;5071606;28;19912;-42
2023/01/31 12:36:53;;;;;;;;;;;;;;;7.86;45.44;99291.19;5071274;28;20437;-41
2023/01/31 12:39:37;;;;;;;;;;;;;;;7.83;45.76;99295.88;5071086;28;19912;-43
2023/01/31 12:42:14;;;;;;;;;;;;;;;7.86;46.49;99292.00;5071219;28;19922;-43
2023/01/31 12:44:48;;;;;;;;;;;;;;;8.00;46.13;99288.41;5074489;28;19924;-43
2023/01/31 12:47:25;;;;;;;;;;;;;;;7.92;46.38;99274.50;5080810;28;20375;-43
2023/01/31 12:50:17;;;;;;;;;;;;;;;8.69;44.84;99297.22;5080921;28;19988;-42
2023/01/31 12:52:46;;;;;;;;;;;;;;;8.16;46.77;99294.38;5079919;28;20327;-42
2023/01/31 12:55:37;;;;;;;;;;;;;;;8.14;47.18;99301.72;5089318;28;19959;-42
2023/01/31 12:58:21;;;;;;;;;;;;;;;7.93;47.79;99305.31;5090613;28;19919;-43
2023/01/31 13:00:46;;;;;;;;;;;;;;;7.89;48.06;99298.78;5090725;28;19941;-42
2023/01/31 13:03:11;;;;;;;;;;;;;;;7.93;47.54;99300.00;5091144;28;19912;-41
2023/01/31 13:05:49;;;;;;;;;;;;;;;7.68;48.28;99307.63;5091517;28;19919;-42
2023/01/31 13:08:20;;;;;;;;;;;;;;;7.41;48.74;99308.28;5091240;28;19920;-42